sensor_id;sensor_type;location;lat;lon;timestamp;temperature;humidity
22114;DHT22;11223;49.968;9.062;2022-07-29T00:00:21;21.50;70.90
22114;DHT22;11223;49.968;9.062;2022-07-29T00:02:46;21.50;70.30
22114;DHT22;11223;49.968;9.062;2022-07-29T00:05:12;21.50;70.60
22114;DHT22;11223;49.968;9.062;2022-07-29T00:07:39;21.50;70.50
22114;DHT22;11223;49.968;9.062;2022-07-29T00:10:05;21.50;69.50
22114;DHT22;11223;49.968;9.062;2022-07-29T00:12:31;21.50;69.60
22114;DHT22;11223;49.968;9.062;2022-07-29T00:14:57;21.50;73.10
22114;DHT22;11223;49.968;9.062;2022-07-29T00:17:23;21.40;75.20
22114;DHT22;11223;49.968;9.062;2022-07-29T00:19:49;21.20;77.20
22114;DHT22;11223;49.968;9.062;2022-07-29T00:22:15;21.00;77.60
22114;DHT22;11223;49.968;9.062;2022-07-29T00:24:41;20.80;77.80
22114;DHT22;11223;49.968;9.062;2022-07-29T00:27:06;20.70;79.00
22114;DHT22;11223;49.968;9.062;2022-07-29T00:29:32;20.50;80.10
22114;DHT22;11223;49.968;9.062;2022-07-29T00:31:57;20.40;82.40
22114;DHT22;11223;49.968;9.062;2022-07-29T00:34:23;20.30;83.80
22114;DHT22;11223;49.968;9.062;2022-07-29T00:37:07;20.20;85.00
22114;DHT22;11223;49.968;9.062;2022-07-29T00:39:32;20.10;86.50
22114;DHT22;11223;49.968;9.062;2022-07-29T00:41:58;20.10;88.00
22114;DHT22;11223;49.968;9.062;2022-07-29T00:44:24;20.00;88.90
22114;DHT22;11223;49.968;9.062;2022-07-29T00:46:49;19.90;89.10
22114;DHT22;11223;49.968;9.062;2022-07-29T00:49:15;19.90;89.30
22114;DHT22;11223;49.968;9.062;2022-07-29T00:51:40;19.70;87.10
22114;DHT22;11223;49.968;9.062;2022-07-29T00:54:07;19.70;86.20
22114;DHT22;11223;49.968;9.062;2022-07-29T00:56:33;19.70;87.30
22114;DHT22;11223;49.968;9.062;2022-07-29T00:58:59;19.70;87.40
22114;DHT22;11223;49.968;9.062;2022-07-29T01:01:25;19.60;87.50
22114;DHT22;11223;49.968;9.062;2022-07-29T01:03:52;19.60;87.40
22114;DHT22;11223;49.968;9.062;2022-07-29T01:06:18;19.50;86.30
22114;DHT22;11223;49.968;9.062;2022-07-29T01:08:45;19.50;86.50
22114;DHT22;11223;49.968;9.062;2022-07-29T01:11:12;19.50;85.50
22114;DHT22;11223;49.968;9.062;2022-07-29T01:13:39;19.50;85.40
22114;DHT22;11223;49.968;9.062;2022-07-29T01:16:30;19.50;86.20
22114;DHT22;11223;49.968;9.062;2022-07-29T01:19:03;19.40;85.70
22114;DHT22;11223;49.968;9.062;2022-07-29T01:21:52;19.40;87.20
22114;DHT22;11223;49.968;9.062;2022-07-29T01:24:47;19.40;88.50
22114;DHT22;11223;49.968;9.062;2022-07-29T01:27:38;19.30;90.20
22114;DHT22;11223;49.968;9.062;2022-07-29T01:30:06;19.30;90.30
22114;DHT22;11223;49.968;9.062;2022-07-29T01:32:35;19.20;90.20
22114;DHT22;11223;49.968;9.062;2022-07-29T01:35:17;19.20;90.40
22114;DHT22;11223;49.968;9.062;2022-07-29T01:37:50;19.20;90.00
22114;DHT22;11223;49.968;9.062;2022-07-29T01:40:28;19.10;89.60
22114;DHT22;11223;49.968;9.062;2022-07-29T01:42:57;19.10;89.60
22114;DHT22;11223;49.968;9.062;2022-07-29T01:50:28;19.00;88.50
22114;DHT22;11223;49.968;9.062;2022-07-29T01:53:07;18.90;88.50
22114;DHT22;11223;49.968;9.062;2022-07-29T01:55:38;18.90;88.50
22114;DHT22;11223;49.968;9.062;2022-07-29T01:58:05;18.90;88.60
22114;DHT22;11223;49.968;9.062;2022-07-29T02:00:33;18.80;90.60
22114;DHT22;11223;49.968;9.062;2022-07-29T02:03:02;18.80;91.00
22114;DHT22;11223;49.968;9.062;2022-07-29T02:05:29;18.80;90.70
22114;DHT22;11223;49.968;9.062;2022-07-29T02:07:57;18.70;90.30
22114;DHT22;11223;49.968;9.062;2022-07-29T02:10:27;18.70;90.50
22114;DHT22;11223;49.968;9.062;2022-07-29T02:12:54;18.70;90.40
22114;DHT22;11223;49.968;9.062;2022-07-29T02:15:26;18.60;90.50
22114;DHT22;11223;49.968;9.062;2022-07-29T02:17:59;18.60;90.60
22114;DHT22;11223;49.968;9.062;2022-07-29T02:20:27;18.60;90.20
22114;DHT22;11223;49.968;9.062;2022-07-29T02:22:53;18.50;90.50
22114;DHT22;11223;49.968;9.062;2022-07-29T02:25:21;18.50;90.10
22114;DHT22;11223;49.968;9.062;2022-07-29T02:27:49;18.50;90.80
22114;DHT22;11223;49.968;9.062;2022-07-29T02:30:16;18.50;91.40
22114;DHT22;11223;49.968;9.062;2022-07-29T02:32:43;18.40;92.00
22114;DHT22;11223;49.968;9.062;2022-07-29T02:35:13;18.30;92.20
22114;DHT22;11223;49.968;9.062;2022-07-29T02:37:40;18.30;92.70
22114;DHT22;11223;49.968;9.062;2022-07-29T02:40:10;18.20;92.70
22114;DHT22;11223;49.968;9.062;2022-07-29T02:42:37;18.20;93.00
22114;DHT22;11223;49.968;9.062;2022-07-29T02:45:05;18.20;92.70
22114;DHT22;11223;49.968;9.062;2022-07-29T02:47:38;18.10;92.50
22114;DHT22;11223;49.968;9.062;2022-07-29T02:50:19;18.10;92.40
22114;DHT22;11223;49.968;9.062;2022-07-29T02:52:54;18.10;92.10
22114;DHT22;11223;49.968;9.062;2022-07-29T02:55:46;18.10;92.10
22114;DHT22;11223;49.968;9.062;2022-07-29T02:58:21;18.00;92.80
22114;DHT22;11223;49.968;9.062;2022-07-29T03:00:52;17.90;93.20
22114;DHT22;11223;49.968;9.062;2022-07-29T03:03:19;17.90;93.00
22114;DHT22;11223;49.968;9.062;2022-07-29T03:05:45;17.90;93.00
22114;DHT22;11223;49.968;9.062;2022-07-29T03:08:11;17.80;92.60
22114;DHT22;11223;49.968;9.062;2022-07-29T03:10:44;17.80;92.50
22114;DHT22;11223;49.968;9.062;2022-07-29T03:13:11;17.80;93.20
22114;DHT22;11223;49.968;9.062;2022-07-29T03:15:38;17.80;93.80
22114;DHT22;11223;49.968;9.062;2022-07-29T03:18:05;17.70;94.00
22114;DHT22;11223;49.968;9.062;2022-07-29T03:20:31;17.60;93.80
22114;DHT22;11223;49.968;9.062;2022-07-29T03:22:57;17.60;93.90
22114;DHT22;11223;49.968;9.062;2022-07-29T03:25:23;17.50;94.10
22114;DHT22;11223;49.968;9.062;2022-07-29T03:27:48;17.50;94.20
22114;DHT22;11223;49.968;9.062;2022-07-29T03:30:14;17.50;94.30
22114;DHT22;11223;49.968;9.062;2022-07-29T03:32:41;17.50;94.10
22114;DHT22;11223;49.968;9.062;2022-07-29T03:35:07;17.40;94.00
22114;DHT22;11223;49.968;9.062;2022-07-29T03:37:33;17.40;93.80
22114;DHT22;11223;49.968;9.062;2022-07-29T03:40:00;17.40;93.70
22114;DHT22;11223;49.968;9.062;2022-07-29T03:42:30;17.30;93.40
22114;DHT22;11223;49.968;9.062;2022-07-29T03:44:57;17.30;93.80
22114;DHT22;11223;49.968;9.062;2022-07-29T03:47:26;17.20;93.50
22114;DHT22;11223;49.968;9.062;2022-07-29T03:49:56;17.10;93.50
22114;DHT22;11223;49.968;9.062;2022-07-29T03:52:23;17.10;93.30
22114;DHT22;11223;49.968;9.062;2022-07-29T03:54:49;17.10;93.50
22114;DHT22;11223;49.968;9.062;2022-07-29T03:57:16;17.10;93.50
22114;DHT22;11223;49.968;9.062;2022-07-29T03:59:44;17.00;93.70
22114;DHT22;11223;49.968;9.062;2022-07-29T04:02:11;17.00;94.10
22114;DHT22;11223;49.968;9.062;2022-07-29T04:04:37;17.00;94.10
22114;DHT22;11223;49.968;9.062;2022-07-29T04:07:03;17.00;94.10
22114;DHT22;11223;49.968;9.062;2022-07-29T04:09:29;17.00;94.00
22114;DHT22;11223;49.968;9.062;2022-07-29T04:11:55;17.00;93.90
22114;DHT22;11223;49.968;9.062;2022-07-29T04:14:21;17.00;93.60
22114;DHT22;11223;49.968;9.062;2022-07-29T04:16:47;17.00;93.70
22114;DHT22;11223;49.968;9.062;2022-07-29T04:19:13;17.00;93.90
22114;DHT22;11223;49.968;9.062;2022-07-29T04:21:39;17.00;94.00
22114;DHT22;11223;49.968;9.062;2022-07-29T04:24:06;17.00;94.30
22114;DHT22;11223;49.968;9.062;2022-07-29T04:26:32;17.00;94.10
22114;DHT22;11223;49.968;9.062;2022-07-29T04:28:58;17.00;94.80
22114;DHT22;11223;49.968;9.062;2022-07-29T04:31:24;17.00;95.00
22114;DHT22;11223;49.968;9.062;2022-07-29T04:33:49;16.90;95.20
22114;DHT22;11223;49.968;9.062;2022-07-29T04:36:15;16.90;94.70
22114;DHT22;11223;49.968;9.062;2022-07-29T04:38:40;16.90;94.40
22114;DHT22;11223;49.968;9.062;2022-07-29T04:41:06;17.00;95.30
22114;DHT22;11223;49.968;9.062;2022-07-29T04:43:33;17.00;96.00
22114;DHT22;11223;49.968;9.062;2022-07-29T04:45:59;17.00;96.30
22114;DHT22;11223;49.968;9.062;2022-07-29T04:48:25;17.00;96.40
22114;DHT22;11223;49.968;9.062;2022-07-29T04:50:50;17.00;96.30
22114;DHT22;11223;49.968;9.062;2022-07-29T04:53:16;17.00;96.00
22114;DHT22;11223;49.968;9.062;2022-07-29T04:55:41;17.00;96.10
22114;DHT22;11223;49.968;9.062;2022-07-29T04:58:07;17.00;96.10
22114;DHT22;11223;49.968;9.062;2022-07-29T05:00:33;17.10;96.20
22114;DHT22;11223;49.968;9.062;2022-07-29T05:02:59;17.10;96.40
22114;DHT22;11223;49.968;9.062;2022-07-29T05:05:25;17.10;96.90
22114;DHT22;11223;49.968;9.062;2022-07-29T05:07:51;17.10;96.90
22114;DHT22;11223;49.968;9.062;2022-07-29T05:10:16;17.10;96.80
22114;DHT22;11223;49.968;9.062;2022-07-29T05:12:42;17.10;97.00
22114;DHT22;11223;49.968;9.062;2022-07-29T05:15:08;17.00;97.10
22114;DHT22;11223;49.968;9.062;2022-07-29T05:17:34;17.00;97.20
22114;DHT22;11223;49.968;9.062;2022-07-29T05:19:59;17.00;97.20
22114;DHT22;11223;49.968;9.062;2022-07-29T05:22:25;17.10;97.50
22114;DHT22;11223;49.968;9.062;2022-07-29T05:24:50;17.00;98.00
22114;DHT22;11223;49.968;9.062;2022-07-29T05:27:16;17.00;98.60
22114;DHT22;11223;49.968;9.062;2022-07-29T05:29:42;17.00;98.50
22114;DHT22;11223;49.968;9.062;2022-07-29T05:32:07;17.10;98.60
22114;DHT22;11223;49.968;9.062;2022-07-29T05:34:33;17.10;98.50
22114;DHT22;11223;49.968;9.062;2022-07-29T05:36:59;17.20;98.70
22114;DHT22;11223;49.968;9.062;2022-07-29T05:39:24;17.30;98.60
22114;DHT22;11223;49.968;9.062;2022-07-29T05:41:50;17.50;98.20
22114;DHT22;11223;49.968;9.062;2022-07-29T05:44:17;17.70;97.90
22114;DHT22;11223;49.968;9.062;2022-07-29T05:46:43;17.90;97.50
22114;DHT22;11223;49.968;9.062;2022-07-29T05:49:08;18.00;97.50
22114;DHT22;11223;49.968;9.062;2022-07-29T05:51:34;18.10;97.20
22114;DHT22;11223;49.968;9.062;2022-07-29T05:54:00;18.30;97.40
22114;DHT22;11223;49.968;9.062;2022-07-29T05:56:26;18.30;97.70
22114;DHT22;11223;49.968;9.062;2022-07-29T05:58:51;18.20;98.10
22114;DHT22;11223;49.968;9.062;2022-07-29T06:01:17;18.20;98.70
22114;DHT22;11223;49.968;9.062;2022-07-29T06:03:43;18.20;99.40
22114;DHT22;11223;49.968;9.062;2022-07-29T06:06:09;18.20;99.90
22114;DHT22;11223;49.968;9.062;2022-07-29T06:08:35;18.10;99.90
22114;DHT22;11223;49.968;9.062;2022-07-29T06:11:02;18.10;99.90
22114;DHT22;11223;49.968;9.062;2022-07-29T06:13:28;18.10;99.90
22114;DHT22;11223;49.968;9.062;2022-07-29T06:15:53;18.10;99.40
22114;DHT22;11223;49.968;9.062;2022-07-29T06:18:19;18.20;99.00
22114;DHT22;11223;49.968;9.062;2022-07-29T06:20:46;18.40;98.60
22114;DHT22;11223;49.968;9.062;2022-07-29T06:23:11;18.60;98.30
22114;DHT22;11223;49.968;9.062;2022-07-29T06:25:39;18.70;98.10
22114;DHT22;11223;49.968;9.062;2022-07-29T06:28:04;18.90;98.30
22114;DHT22;11223;49.968;9.062;2022-07-29T06:30:30;19.10;97.70
22114;DHT22;11223;49.968;9.062;2022-07-29T06:32:55;19.20;96.70
22114;DHT22;11223;49.968;9.062;2022-07-29T06:35:21;19.50;95.20
22114;DHT22;11223;49.968;9.062;2022-07-29T06:37:47;19.60;94.10
22114;DHT22;11223;49.968;9.062;2022-07-29T06:40:12;19.80;93.20
22114;DHT22;11223;49.968;9.062;2022-07-29T06:42:56;20.00;92.40
22114;DHT22;11223;49.968;9.062;2022-07-29T06:45:22;20.20;91.30
22114;DHT22;11223;49.968;9.062;2022-07-29T06:47:49;20.40;90.20
22114;DHT22;11223;49.968;9.062;2022-07-29T06:50:15;20.60;90.00
22114;DHT22;11223;49.968;9.062;2022-07-29T06:52:40;20.80;88.60
22114;DHT22;11223;49.968;9.062;2022-07-29T06:55:07;20.90;89.00
22114;DHT22;11223;49.968;9.062;2022-07-29T06:57:33;21.10;88.50
22114;DHT22;11223;49.968;9.062;2022-07-29T06:59:59;21.10;88.60
22114;DHT22;11223;49.968;9.062;2022-07-29T07:02:25;21.10;88.90
22114;DHT22;11223;49.968;9.062;2022-07-29T07:04:51;21.10;89.10
22114;DHT22;11223;49.968;9.062;2022-07-29T07:07:17;21.10;88.00
22114;DHT22;11223;49.968;9.062;2022-07-29T07:09:43;21.20;87.40
22114;DHT22;11223;49.968;9.062;2022-07-29T07:12:08;21.20;85.90
22114;DHT22;11223;49.968;9.062;2022-07-29T07:14:34;21.30;85.60
22114;DHT22;11223;49.968;9.062;2022-07-29T07:16:59;21.40;85.50
22114;DHT22;11223;49.968;9.062;2022-07-29T07:19:29;21.50;85.70
22114;DHT22;11223;49.968;9.062;2022-07-29T07:21:54;21.50;89.80
22114;DHT22;11223;49.968;9.062;2022-07-29T07:24:20;21.50;90.40
22114;DHT22;11223;49.968;9.062;2022-07-29T07:26:46;21.50;91.10
22114;DHT22;11223;49.968;9.062;2022-07-29T07:29:11;21.60;91.20
22114;DHT22;11223;49.968;9.062;2022-07-29T07:31:37;21.60;90.60
22114;DHT22;11223;49.968;9.062;2022-07-29T07:34:03;21.50;89.30
22114;DHT22;11223;49.968;9.062;2022-07-29T07:36:29;21.60;89.00
22114;DHT22;11223;49.968;9.062;2022-07-29T07:38:55;21.60;88.00
22114;DHT22;11223;49.968;9.062;2022-07-29T07:41:21;21.70;87.20
22114;DHT22;11223;49.968;9.062;2022-07-29T07:43:47;21.80;86.00
22114;DHT22;11223;49.968;9.062;2022-07-29T07:46:12;22.00;84.90
22114;DHT22;11223;49.968;9.062;2022-07-29T07:48:38;22.20;82.90
22114;DHT22;11223;49.968;9.062;2022-07-29T07:51:03;22.50;82.80
22114;DHT22;11223;49.968;9.062;2022-07-29T07:53:29;22.60;83.20
22114;DHT22;11223;49.968;9.062;2022-07-29T07:55:55;22.70;80.00
22114;DHT22;11223;49.968;9.062;2022-07-29T07:58:21;22.90;80.00
22114;DHT22;11223;49.968;9.062;2022-07-29T08:00:47;23.00;79.80
22114;DHT22;11223;49.968;9.062;2022-07-29T08:03:12;23.20;78.20
22114;DHT22;11223;49.968;9.062;2022-07-29T08:05:39;23.40;77.00
22114;DHT22;11223;49.968;9.062;2022-07-29T08:08:06;23.40;76.90
22114;DHT22;11223;49.968;9.062;2022-07-29T08:10:32;23.40;76.50
22114;DHT22;11223;49.968;9.062;2022-07-29T08:13:16;23.30;76.30
22114;DHT22;11223;49.968;9.062;2022-07-29T08:15:42;23.40;77.40
22114;DHT22;11223;49.968;9.062;2022-07-29T08:18:10;23.30;77.90
22114;DHT22;11223;49.968;9.062;2022-07-29T08:20:36;23.40;77.90
22114;DHT22;11223;49.968;9.062;2022-07-29T08:23:07;23.60;77.30
22114;DHT22;11223;49.968;9.062;2022-07-29T08:25:37;23.80;77.30
22114;DHT22;11223;49.968;9.062;2022-07-29T08:28:04;24.00;78.00
22114;DHT22;11223;49.968;9.062;2022-07-29T08:30:30;24.10;75.80
22114;DHT22;11223;49.968;9.062;2022-07-29T08:32:58;24.20;75.60
22114;DHT22;11223;49.968;9.062;2022-07-29T08:35:24;24.20;73.10
22114;DHT22;11223;49.968;9.062;2022-07-29T08:37:50;24.20;74.30
22114;DHT22;11223;49.968;9.062;2022-07-29T08:40:16;24.30;75.70
22114;DHT22;11223;49.968;9.062;2022-07-29T08:42:42;24.40;76.10
22114;DHT22;11223;49.968;9.062;2022-07-29T08:45:08;24.50;77.20
22114;DHT22;11223;49.968;9.062;2022-07-29T08:47:34;24.70;76.10
22114;DHT22;11223;49.968;9.062;2022-07-29T08:50:04;24.90;78.40
22114;DHT22;11223;49.968;9.062;2022-07-29T08:52:33;25.10;77.00
22114;DHT22;11223;49.968;9.062;2022-07-29T08:55:00;25.40;74.70
22114;DHT22;11223;49.968;9.062;2022-07-29T08:57:26;25.50;73.80
22114;DHT22;11223;49.968;9.062;2022-07-29T08:59:52;25.70;72.30
22114;DHT22;11223;49.968;9.062;2022-07-29T09:02:20;25.80;70.70
22114;DHT22;11223;49.968;9.062;2022-07-29T09:04:47;25.90;71.00
22114;DHT22;11223;49.968;9.062;2022-07-29T09:07:15;26.00;71.30
22114;DHT22;11223;49.968;9.062;2022-07-29T09:09:42;26.10;71.40
22114;DHT22;11223;49.968;9.062;2022-07-29T09:12:11;26.20;70.80
22114;DHT22;11223;49.968;9.062;2022-07-29T09:14:38;26.30;72.40
22114;DHT22;11223;49.968;9.062;2022-07-29T09:17:05;26.30;70.60
22114;DHT22;11223;49.968;9.062;2022-07-29T09:19:33;26.20;70.20
22114;DHT22;11223;49.968;9.062;2022-07-29T09:22:06;26.20;71.40
22114;DHT22;11223;49.968;9.062;2022-07-29T09:27:21;26.30;69.90
22114;DHT22;11223;49.968;9.062;2022-07-29T09:29:55;26.30;70.30
22114;DHT22;11223;49.968;9.062;2022-07-29T09:32:21;26.40;71.00
22114;DHT22;11223;49.968;9.062;2022-07-29T09:34:47;26.60;70.40
22114;DHT22;11223;49.968;9.062;2022-07-29T09:37:25;26.80;71.00
22114;DHT22;11223;49.968;9.062;2022-07-29T09:39:51;26.80;72.60
22114;DHT22;11223;49.968;9.062;2022-07-29T09:42:28;26.80;71.20
22114;DHT22;11223;49.968;9.062;2022-07-29T09:44:53;26.70;69.70
22114;DHT22;11223;49.968;9.062;2022-07-29T09:47:19;26.80;69.40
22114;DHT22;11223;49.968;9.062;2022-07-29T09:49:57;26.90;68.70
22114;DHT22;11223;49.968;9.062;2022-07-29T09:52:25;27.10;70.50
22114;DHT22;11223;49.968;9.062;2022-07-29T09:54:51;27.10;70.30
22114;DHT22;11223;49.968;9.062;2022-07-29T09:57:24;27.00;70.20
22114;DHT22;11223;49.968;9.062;2022-07-29T10:02:35;27.10;71.10
22114;DHT22;11223;49.968;9.062;2022-07-29T10:05:03;27.20;71.40
22114;DHT22;11223;49.968;9.062;2022-07-29T10:07:47;27.30;72.00
22114;DHT22;11223;49.968;9.062;2022-07-29T10:10:34;27.40;72.50
22114;DHT22;11223;49.968;9.062;2022-07-29T10:13:05;27.70;72.00
22114;DHT22;11223;49.968;9.062;2022-07-29T10:15:34;27.80;69.70
22114;DHT22;11223;49.968;9.062;2022-07-29T10:18:07;28.00;68.20
22114;DHT22;11223;49.968;9.062;2022-07-29T10:20:34;28.10;67.40
22114;DHT22;11223;49.968;9.062;2022-07-29T10:23:00;28.20;67.70
22114;DHT22;11223;49.968;9.062;2022-07-29T10:25:26;28.40;68.40
22114;DHT22;11223;49.968;9.062;2022-07-29T10:27:52;28.40;69.90
22114;DHT22;11223;49.968;9.062;2022-07-29T10:30:19;28.50;68.20
22114;DHT22;11223;49.968;9.062;2022-07-29T10:35:59;28.70;64.80
22114;DHT22;11223;49.968;9.062;2022-07-29T10:42:02;28.70;65.90
22114;DHT22;11223;49.968;9.062;2022-07-29T10:44:32;28.90;65.40
22114;DHT22;11223;49.968;9.062;2022-07-29T10:46:58;29.00;64.90
22114;DHT22;11223;49.968;9.062;2022-07-29T10:49:25;29.10;65.30
22114;DHT22;11223;49.968;9.062;2022-07-29T10:52:04;29.30;64.90
22114;DHT22;11223;49.968;9.062;2022-07-29T10:59:38;29.70;62.80
22114;DHT22;11223;49.968;9.062;2022-07-29T11:05:07;29.70;62.60
22114;DHT22;11223;49.968;9.062;2022-07-29T11:07:35;29.70;62.60
22114;DHT22;11223;49.968;9.062;2022-07-29T11:15:29;29.40;64.20
22114;DHT22;11223;49.968;9.062;2022-07-29T11:20:45;29.40;65.00
22114;DHT22;11223;49.968;9.062;2022-07-29T11:31:45;30.20;63.70
22114;DHT22;11223;49.968;9.062;2022-07-29T11:34:25;30.20;64.70
22114;DHT22;11223;49.968;9.062;2022-07-29T11:39:33;30.10;64.40
22114;DHT22;11223;49.968;9.062;2022-07-29T11:47:31;29.90;66.20
22114;DHT22;11223;49.968;9.062;2022-07-29T11:49:58;29.90;65.20
22114;DHT22;11223;49.968;9.062;2022-07-29T11:52:35;29.70;66.10
22114;DHT22;11223;49.968;9.062;2022-07-29T11:55:04;29.70;67.10
22114;DHT22;11223;49.968;9.062;2022-07-29T11:57:30;29.70;66.10
22114;DHT22;11223;49.968;9.062;2022-07-29T11:59:57;29.50;65.40
22114;DHT22;11223;49.968;9.062;2022-07-29T12:02:23;29.50;65.20
22114;DHT22;11223;49.968;9.062;2022-07-29T12:04:50;29.30;65.40
22114;DHT22;11223;49.968;9.062;2022-07-29T12:07:16;29.30;66.20
22114;DHT22;11223;49.968;9.062;2022-07-29T12:09:50;29.50;66.00
22114;DHT22;11223;49.968;9.062;2022-07-29T12:12:16;29.70;64.80
22114;DHT22;11223;49.968;9.062;2022-07-29T12:14:42;29.90;67.00
22114;DHT22;11223;49.968;9.062;2022-07-29T12:19:52;30.30;62.20
22114;DHT22;11223;49.968;9.062;2022-07-29T12:22:29;30.40;63.20
22114;DHT22;11223;49.968;9.062;2022-07-29T12:24:55;30.60;64.90
22114;DHT22;11223;49.968;9.062;2022-07-29T12:27:25;30.90;63.70
22114;DHT22;11223;49.968;9.062;2022-07-29T12:30:03;31.10;63.40
22114;DHT22;11223;49.968;9.062;2022-07-29T12:32:41;31.30;63.50
22114;DHT22;11223;49.968;9.062;2022-07-29T12:35:17;31.40;61.90
22114;DHT22;11223;49.968;9.062;2022-07-29T12:37:46;31.50;62.20
22114;DHT22;11223;49.968;9.062;2022-07-29T12:40:15;31.50;60.40
22114;DHT22;11223;49.968;9.062;2022-07-29T12:43:12;31.60;61.90
22114;DHT22;11223;49.968;9.062;2022-07-29T12:45:40;31.80;60.60
22114;DHT22;11223;49.968;9.062;2022-07-29T12:48:06;31.80;60.00
22114;DHT22;11223;49.968;9.062;2022-07-29T12:50:55;31.90;59.80
22114;DHT22;11223;49.968;9.062;2022-07-29T12:53:21;32.00;59.80
22114;DHT22;11223;49.968;9.062;2022-07-29T12:55:49;31.90;57.30
22114;DHT22;11223;49.968;9.062;2022-07-29T12:58:35;31.80;58.20
22114;DHT22;11223;49.968;9.062;2022-07-29T13:03:46;32.30;60.00
22114;DHT22;11223;49.968;9.062;2022-07-29T13:11:37;32.20;58.60
22114;DHT22;11223;49.968;9.062;2022-07-29T13:14:04;31.70;61.70
22114;DHT22;11223;49.968;9.062;2022-07-29T13:16:29;31.20;61.30
22114;DHT22;11223;49.968;9.062;2022-07-29T13:19:10;30.90;60.80
22114;DHT22;11223;49.968;9.062;2022-07-29T13:21:37;30.70;60.30
22114;DHT22;11223;49.968;9.062;2022-07-29T13:24:06;30.70;59.70
22114;DHT22;11223;49.968;9.062;2022-07-29T13:26:32;30.80;61.00
22114;DHT22;11223;49.968;9.062;2022-07-29T13:28:58;30.60;61.00
22114;DHT22;11223;49.968;9.062;2022-07-29T13:31:24;30.40;60.50
22114;DHT22;11223;49.968;9.062;2022-07-29T13:33:50;30.20;63.40
22114;DHT22;11223;49.968;9.062;2022-07-29T13:36:15;30.00;62.70
22114;DHT22;11223;49.968;9.062;2022-07-29T13:38:41;29.80;64.90
22114;DHT22;11223;49.968;9.062;2022-07-29T13:41:07;29.60;68.10
22114;DHT22;11223;49.968;9.062;2022-07-29T13:43:32;29.50;66.80
22114;DHT22;11223;49.968;9.062;2022-07-29T13:45:58;29.40;66.90
22114;DHT22;11223;49.968;9.062;2022-07-29T13:48:23;29.30;65.80
22114;DHT22;11223;49.968;9.062;2022-07-29T13:50:49;29.10;61.50
22114;DHT22;11223;49.968;9.062;2022-07-29T13:53:15;28.90;63.50
22114;DHT22;11223;49.968;9.062;2022-07-29T13:55:40;28.80;69.20
22114;DHT22;11223;49.968;9.062;2022-07-29T13:58:06;28.60;71.70
22114;DHT22;11223;49.968;9.062;2022-07-29T14:00:31;28.40;74.80
22114;DHT22;11223;49.968;9.062;2022-07-29T14:02:57;28.10;75.90
22114;DHT22;11223;49.968;9.062;2022-07-29T14:05:23;27.90;79.20
22114;DHT22;11223;49.968;9.062;2022-07-29T14:07:48;27.70;76.40
22114;DHT22;11223;49.968;9.062;2022-07-29T14:10:14;27.50;80.80
22114;DHT22;11223;49.968;9.062;2022-07-29T14:12:39;27.30;82.50
22114;DHT22;11223;49.968;9.062;2022-07-29T14:15:07;26.90;86.50
22114;DHT22;11223;49.968;9.062;2022-07-29T14:17:34;26.60;91.00
22114;DHT22;11223;49.968;9.062;2022-07-29T14:20:00;26.20;93.90
22114;DHT22;11223;49.968;9.062;2022-07-29T14:22:26;25.80;98.00
22114;DHT22;11223;49.968;9.062;2022-07-29T14:24:51;25.20;99.70
22114;DHT22;11223;49.968;9.062;2022-07-29T14:27:17;24.70;99.90
22114;DHT22;11223;49.968;9.062;2022-07-29T14:29:43;24.30;99.90
22114;DHT22;11223;49.968;9.062;2022-07-29T14:32:09;24.00;99.90
22114;DHT22;11223;49.968;9.062;2022-07-29T14:34:40;23.60;99.90
22114;DHT22;11223;49.968;9.062;2022-07-29T14:37:06;23.30;99.90
22114;DHT22;11223;49.968;9.062;2022-07-29T14:39:32;23.00;99.90
22114;DHT22;11223;49.968;9.062;2022-07-29T14:41:58;22.80;99.90
22114;DHT22;11223;49.968;9.062;2022-07-29T14:44:24;22.70;99.90
22114;DHT22;11223;49.968;9.062;2022-07-29T14:46:54;22.70;99.90
22114;DHT22;11223;49.968;9.062;2022-07-29T14:49:19;22.50;99.90
22114;DHT22;11223;49.968;9.062;2022-07-29T14:51:45;22.40;99.90
22114;DHT22;11223;49.968;9.062;2022-07-29T14:54:10;22.20;99.90
22114;DHT22;11223;49.968;9.062;2022-07-29T14:56:36;22.00;99.90
22114;DHT22;11223;49.968;9.062;2022-07-29T14:59:01;21.80;99.90
22114;DHT22;11223;49.968;9.062;2022-07-29T15:01:27;21.70;99.90
22114;DHT22;11223;49.968;9.062;2022-07-29T15:03:53;21.50;99.90
22114;DHT22;11223;49.968;9.062;2022-07-29T15:06:18;21.50;99.90
22114;DHT22;11223;49.968;9.062;2022-07-29T15:08:44;21.40;99.90
22114;DHT22;11223;49.968;9.062;2022-07-29T15:11:09;21.30;99.90
22114;DHT22;11223;49.968;9.062;2022-07-29T15:13:35;21.20;99.90
22114;DHT22;11223;49.968;9.062;2022-07-29T15:16:01;21.10;99.90
22114;DHT22;11223;49.968;9.062;2022-07-29T15:18:26;21.00;99.90
22114;DHT22;11223;49.968;9.062;2022-07-29T15:20:52;21.00;99.90
22114;DHT22;11223;49.968;9.062;2022-07-29T15:23:18;20.90;99.90
22114;DHT22;11223;49.968;9.062;2022-07-29T15:25:43;20.90;99.90
22114;DHT22;11223;49.968;9.062;2022-07-29T15:28:09;20.80;99.90
22114;DHT22;11223;49.968;9.062;2022-07-29T15:30:35;20.70;99.90
22114;DHT22;11223;49.968;9.062;2022-07-29T15:33:06;20.60;99.90
22114;DHT22;11223;49.968;9.062;2022-07-29T15:35:32;20.60;99.90
22114;DHT22;11223;49.968;9.062;2022-07-29T15:37:57;20.60;99.90
22114;DHT22;11223;49.968;9.062;2022-07-29T15:40:23;20.50;99.90
22114;DHT22;11223;49.968;9.062;2022-07-29T15:42:49;20.50;99.90
22114;DHT22;11223;49.968;9.062;2022-07-29T15:45:14;20.50;99.90
22114;DHT22;11223;49.968;9.062;2022-07-29T15:47:40;20.50;99.90
22114;DHT22;11223;49.968;9.062;2022-07-29T15:50:06;20.50;99.90
22114;DHT22;11223;49.968;9.062;2022-07-29T15:52:37;20.50;99.90
22114;DHT22;11223;49.968;9.062;2022-07-29T15:55:03;20.50;99.90
22114;DHT22;11223;49.968;9.062;2022-07-29T15:57:28;20.40;99.90
22114;DHT22;11223;49.968;9.062;2022-07-29T15:59:54;20.30;99.90
22114;DHT22;11223;49.968;9.062;2022-07-29T16:02:20;20.20;99.90
22114;DHT22;11223;49.968;9.062;2022-07-29T16:04:45;20.20;99.90
22114;DHT22;11223;49.968;9.062;2022-07-29T16:07:11;20.10;99.90
22114;DHT22;11223;49.968;9.062;2022-07-29T16:09:37;20.10;99.90
22114;DHT22;11223;49.968;9.062;2022-07-29T16:12:02;20.10;99.90
22114;DHT22;11223;49.968;9.062;2022-07-29T16:14:29;20.10;99.90
22114;DHT22;11223;49.968;9.062;2022-07-29T16:16:54;20.10;99.90
22114;DHT22;11223;49.968;9.062;2022-07-29T16:19:20;20.10;99.90
22114;DHT22;11223;49.968;9.062;2022-07-29T16:21:46;20.10;99.90
22114;DHT22;11223;49.968;9.062;2022-07-29T16:24:11;20.00;99.90
22114;DHT22;11223;49.968;9.062;2022-07-29T16:26:37;20.10;99.90
22114;DHT22;11223;49.968;9.062;2022-07-29T16:29:03;20.10;99.90
22114;DHT22;11223;49.968;9.062;2022-07-29T16:31:29;20.10;99.90
22114;DHT22;11223;49.968;9.062;2022-07-29T16:33:55;20.10;99.90